Hitachimaru — JD2063 — position and weather

sailwx.info

Track history (hours):
 
Tides and Currents Weather Stations Pressure Air Temp Water Temp Dewpoint Dewpoint Depression Visibility Wind Speed Wind Dir Waves Ship Positions

Hitachimaru

Last reported at 2016-May-05 15:30 UTC. Time now 2016-May-06 18:43 UTC.
Position N 34°37' E 134°54'.

Length 83 m; draft 4.7 m.

Type: Cargo ship. MMSI: 431301756.

Date/timePositionNaut miles runAvg speedWind from/ knotsBaromVisibWave heightAir tempDewpointWater temp
2016-May-05 15:30N 34°37' E 134°54'8 8.9
2016-May-05 14:33N 34°36' E 135°04'1010.3
2016-May-05 13:33N 34°26' E 135°03'1211.5
2016-May-05 12:33N 34°15' E 134°59'  
2016-May-02 10:29N 35°07' E 139°43'1111.7
2016-May-02 09:33N 35°18' E 139°44'1110.6
2016-May-02 08:33N 35°28' E 139°49'1212.4
2016-May-02 07:33N 35°38' E 139°58'3 2.6
2016-May-02 06:29N 35°40' E 139°57'0 0.0
2016-May-02 05:29N 35°40' E 139°57'0 0.0
2016-May-02 04:29N 35°40' E 139°57'0 0.0
2016-May-02 03:29N 35°40' E 139°57'0 0.0
2016-May-02 02:29N 35°40' E 139°57'0 0.0
2016-May-02 01:29N 35°40' E 139°57'0 0.0
2016-May-02 00:17N 35°40' E 139°57'0 0.0
2016-May-01 23:29N 35°40' E 139°57'0 0.0
2016-May-01 22:27N 35°40' E 139°57'4 3.3
2016-May-01 21:23N 35°37' E 139°57'0 0.1
2016-May-01 20:29N 35°37' E 139°57'0 0.0
2016-May-01 19:29N 35°37' E 139°57'0 0.0
2016-May-01 18:29N 35°37' E 139°57'0 0.0
2016-May-01 17:23N 35°37' E 139°57'0 0.0
2016-May-01 16:29N 35°37' E 139°57'0 0.0
2016-May-01 15:29N 35°37' E 139°57'0 0.0
2016-May-01 14:22N 35°37' E 139°57'0 0.0
2016-May-01 13:28N 35°37' E 139°57'0 0.0
2016-May-01 12:28N 35°37' E 139°57'0 0.0
2016-May-01 11:28N 35°37' E 139°57'0 0.0
2016-May-01 10:31N 35°37' E 139°57'0 0.0
2016-May-01 09:31N 35°37' E 139°57'0 0.0
2016-May-01 08:31N 35°37' E 139°57'0 0.0
2016-May-01 07:31N 35°37' E 139°57'0 0.0
2016-May-01 06:31N 35°37' E 139°57'0 0.0
2016-May-01 05:31N 35°37' E 139°57'1 1.2
2016-May-01 04:33N 35°36' E 139°57'1211.6
2016-May-01 03:33N 35°26' E 139°49'1010.3
2016-May-01 02:33N 35°16' E 139°46'1111.2
2016-May-01 01:33N 35°05' E 139°45'24210.0
2016-Apr-30 01:20N 34°10' E 134°58'2111.8
2016-Apr-29 23:33N 34°28' E 135°11'1211.8
2016-Apr-29 22:33N 34°36' E 135°22'5 4.5
2016-Apr-29 21:32N 34°34' E 135°27'0 0.0
2016-Apr-29 20:12N 34°34' E 135°27'0 0.0
2016-Apr-29 15:05N 34°34' E 135°27'0 0.0
2016-Apr-29 14:17N 34°34' E 135°27'0 0.0
2016-Apr-29 13:23N 34°34' E 135°27'1 0.9
2016-Apr-29 12:33N 34°35' E 135°27'1 0.2
2016-Apr-29 08:18N 34°35' E 135°28'0 0.0
2016-Apr-29 06:06N 34°35' E 135°28'0 0.0
2016-Apr-29 03:06N 34°35' E 135°28'1 2.3
2016-Apr-29 02:33N 34°34' E 135°27'0 0.0
2016-Apr-28 15:29N 34°34' E 135°27'2 1.7
2016-Apr-28 14:33N 34°35' E 135°28'0 0.0
2016-Apr-28 13:33N 34°35' E 135°28'0 0.0
2016-Apr-28 12:33N 34°35' E 135°28'0 0.0
2016-Apr-28 11:15N 34°35' E 135°28'0 0.0
2016-Apr-28 10:21N 34°35' E 135°28'0 0.0
2016-Apr-28 04:08N 34°35' E 135°28'0 0.0
2016-Apr-28 02:26N 34°35' E 135°28'0 0.0
2016-Apr-28 01:14N 34°35' E 135°28'0 0.0
2016-Apr-27 23:14N 34°35' E 135°28'0 0.0
2016-Apr-27 22:14N 34°35' E 135°28'0 0.0
2016-Apr-27 21:26N 34°35' E 135°28'0 0.0
2016-Apr-27 20:26N 34°35' E 135°28'0 0.0
2016-Apr-27 19:30N 34°35' E 135°28'7 7.8
2016-Apr-27 18:33N 34°36' E 135°19'1211.6
2016-Apr-27 17:33N 34°35' E 135°05'1110.3
2016-Apr-27 16:27N 34°38' E 134°52'8 0.5
2016-Apr-27 00:17N 34°37' E 135°01'7 8.9
2016-Apr-26 23:33N 34°31' E 135°05'1211.6
2016-Apr-26 22:33N 34°20' E 135°01'1110.6
2016-Apr-26 21:33N 34°10' E 134°60'  
Track history (hours):
 
Tides and Currents Weather Stations Pressure Air Temp Water Temp Dewpoint Dewpoint Depression Visibility Wind Speed Wind Dir Waves Ship Positions

Hitachimaru

Last reported at 2016-May-05 15:30 UTC. Time now 2016-May-06 18:43 UTC.
Position N 34°37' E 134°54'.

Length 83 m; draft 4.7 m.

Type: Cargo ship. MMSI: 431301756.

Date/timePositionNaut miles runAvg speedWind from/ knotsBaromVisibWave heightAir tempDewpointWater temp
2016-May-05 15:30N 34°37' E 134°54'8 8.9
2016-May-05 14:33N 34°36' E 135°04'1010.3
2016-May-05 13:33N 34°26' E 135°03'1211.5
2016-May-05 12:33N 34°15' E 134°59'  
2016-May-02 10:29N 35°07' E 139°43'1111.7
2016-May-02 09:33N 35°18' E 139°44'1110.6
2016-May-02 08:33N 35°28' E 139°49'1212.4
2016-May-02 07:33N 35°38' E 139°58'3 2.6
2016-May-02 06:29N 35°40' E 139°57'0 0.0
2016-May-02 05:29N 35°40' E 139°57'0 0.0
2016-May-02 04:29N 35°40' E 139°57'0 0.0
2016-May-02 03:29N 35°40' E 139°57'0 0.0
2016-May-02 02:29N 35°40' E 139°57'0 0.0
2016-May-02 01:29N 35°40' E 139°57'0 0.0
2016-May-02 00:17N 35°40' E 139°57'0 0.0
2016-May-01 23:29N 35°40' E 139°57'0 0.0
2016-May-01 22:27N 35°40' E 139°57'4 3.3
2016-May-01 21:23N 35°37' E 139°57'0 0.1
2016-May-01 20:29N 35°37' E 139°57'0 0.0
2016-May-01 19:29N 35°37' E 139°57'0 0.0
2016-May-01 18:29N 35°37' E 139°57'0 0.0
2016-May-01 17:23N 35°37' E 139°57'0 0.0
2016-May-01 16:29N 35°37' E 139°57'0 0.0
2016-May-01 15:29N 35°37' E 139°57'0 0.0
2016-May-01 14:22N 35°37' E 139°57'0 0.0
2016-May-01 13:28N 35°37' E 139°57'0 0.0
2016-May-01 12:28N 35°37' E 139°57'0 0.0
2016-May-01 11:28N 35°37' E 139°57'0 0.0
2016-May-01 10:31N 35°37' E 139°57'0 0.0
2016-May-01 09:31N 35°37' E 139°57'0 0.0
2016-May-01 08:31N 35°37' E 139°57'0 0.0
2016-May-01 07:31N 35°37' E 139°57'0 0.0
2016-May-01 06:31N 35°37' E 139°57'0 0.0
2016-May-01 05:31N 35°37' E 139°57'1 1.2
2016-May-01 04:33N 35°36' E 139°57'1211.6
2016-May-01 03:33N 35°26' E 139°49'1010.3
2016-May-01 02:33N 35°16' E 139°46'1111.2
2016-May-01 01:33N 35°05' E 139°45'24210.0
2016-Apr-30 01:20N 34°10' E 134°58'2111.8
2016-Apr-29 23:33N 34°28' E 135°11'1211.8
2016-Apr-29 22:33N 34°36' E 135°22'5 4.5
2016-Apr-29 21:32N 34°34' E 135°27'0 0.0
2016-Apr-29 20:12N 34°34' E 135°27'0 0.0
2016-Apr-29 15:05N 34°34' E 135°27'0 0.0
2016-Apr-29 14:17N 34°34' E 135°27'0 0.0
2016-Apr-29 13:23N 34°34' E 135°27'1 0.9
2016-Apr-29 12:33N 34°35' E 135°27'1 0.2
2016-Apr-29 08:18N 34°35' E 135°28'0 0.0
2016-Apr-29 06:06N 34°35' E 135°28'0 0.0
2016-Apr-29 03:06N 34°35' E 135°28'1 2.3
2016-Apr-29 02:33N 34°34' E 135°27'0 0.0
2016-Apr-28 15:29N 34°34' E 135°27'2 1.7
2016-Apr-28 14:33N 34°35' E 135°28'0 0.0
2016-Apr-28 13:33N 34°35' E 135°28'0 0.0
2016-Apr-28 12:33N 34°35' E 135°28'0 0.0
2016-Apr-28 11:15N 34°35' E 135°28'0 0.0
2016-Apr-28 10:21N 34°35' E 135°28'0 0.0
2016-Apr-28 04:08N 34°35' E 135°28'0 0.0
2016-Apr-28 02:26N 34°35' E 135°28'0 0.0
2016-Apr-28 01:14N 34°35' E 135°28'0 0.0
2016-Apr-27 23:14N 34°35' E 135°28'0 0.0
2016-Apr-27 22:14N 34°35' E 135°28'0 0.0
2016-Apr-27 21:26N 34°35' E 135°28'0 0.0
2016-Apr-27 20:26N 34°35' E 135°28'0 0.0
2016-Apr-27 19:30N 34°35' E 135°28'7 7.8
2016-Apr-27 18:33N 34°36' E 135°19'1211.6
2016-Apr-27 17:33N 34°35' E 135°05'1110.3
2016-Apr-27 16:27N 34°38' E 134°52'8 0.5
2016-Apr-27 00:17N 34°37' E 135°01'7 8.9
2016-Apr-26 23:33N 34°31' E 135°05'1211.6
2016-Apr-26 22:33N 34°20' E 135°01'1110.6
2016-Apr-26 21:33N 34°10' E 134°60'  

Dump ship's entire track history